Terminal Aerodrome Forecast
Issued by NWS

Home | Current Version | Previous Version | Text Only | Print | Product List | Glossary On
Versions: 1 2 3 4 5 6 7 8 9 10 11 12
000
FTAK31 PANC 311137
TAFACD
TAF
PACD 311137Z 3112/0112 13030G42KT 6SM -RA BKN022 OVC030
      TEMPO 3112/3114 SCT022 OVC030
     FM311800 12024G30KT 6SM -RA BR SCT008 OVC012
     FM312200 12016G24KT P6SM -RA OVC015
     FM010000 12015KT P6SM -RA SCT015 OVC025
     FM010700 13008KT P6SM VCSH BKN015=

USA.gov is the U.S. government's official web portal to all federal, state and local government web resources and services.